createdAt,value
2023-03-06T00:02:09.928Z,58.91
2023-03-06T00:04:37.832Z,58.82
2023-03-06T00:07:05.890Z,58.87
2023-03-06T00:09:33.910Z,58.77
2023-03-06T00:12:01.797Z,58.77
2023-03-06T00:14:29.656Z,58.20
2023-03-06T00:16:57.640Z,57.48
2023-03-06T00:19:25.677Z,56.86
2023-03-06T00:21:54.711Z,56.52
2023-03-06T00:24:22.710Z,55.74
2023-03-06T00:26:50.940Z,55.40
2023-03-06T00:29:18.887Z,55.30
2023-03-06T00:31:48.043Z,55.26
2023-03-06T00:34:16.069Z,54.85
2023-03-06T00:36:43.923Z,54.56
2023-03-06T00:39:11.897Z,54.43
2023-03-06T00:41:39.854Z,54.38
2023-03-06T00:44:07.744Z,54.64
2023-03-06T00:46:35.659Z,55.00
2023-03-06T00:49:03.791Z,54.91
2023-03-06T00:51:31.828Z,54.67
2023-03-06T00:53:59.711Z,54.42
2023-03-06T00:56:27.535Z,53.97
2023-03-06T00:58:55.356Z,53.91
2023-03-06T01:01:23.464Z,54.31
2023-03-06T01:03:51.538Z,54.13
2023-03-06T01:06:19.509Z,54.54
2023-03-06T01:08:47.446Z,54.75
2023-03-06T01:11:15.494Z,55.40
2023-03-06T01:13:44.252Z,54.71
2023-03-06T01:16:15.056Z,54.76
2023-03-06T01:18:43.163Z,54.94
2023-03-06T01:21:11.097Z,55.43
2023-03-06T01:23:39.362Z,55.44
2023-03-06T01:26:07.833Z,55.51
2023-03-06T01:28:37.550Z,55.90
2023-03-06T01:31:07.097Z,56.31
2023-03-06T01:33:36.130Z,56.68
2023-03-06T01:36:08.583Z,56.86
2023-03-06T01:38:36.907Z,56.69
2023-03-06T01:41:05.676Z,57.17
2023-03-06T01:43:36.050Z,57.44
2023-03-06T01:46:27.752Z,57.58
2023-03-06T01:49:07.836Z,57.58
2023-03-06T01:51:39.761Z,57.78
2023-03-06T01:54:13.289Z,57.99
2023-03-06T01:56:46.528Z,58.03
2023-03-06T01:59:14.811Z,58.06
2023-03-06T02:01:44.247Z,58.14
2023-03-06T02:04:13.027Z,58.44
2023-03-06T02:06:43.337Z,58.38
2023-03-06T02:09:12.670Z,58.32
2023-03-06T02:11:44.165Z,58.33
2023-03-06T02:14:15.877Z,58.97
2023-03-06T02:16:44.112Z,59.11
2023-03-06T02:19:40.353Z,58.99
2023-03-06T02:22:08.407Z,59.06
2023-03-06T02:24:48.455Z,59.00
2023-03-06T02:27:17.632Z,58.93
2023-03-06T02:29:45.766Z,58.82
2023-03-06T02:32:13.826Z,58.55
2023-03-06T02:34:44.510Z,58.72
2023-03-06T02:37:12.622Z,58.95
2023-03-06T02:39:46.487Z,59.02
2023-03-06T02:42:26.698Z,59.03
2023-03-06T02:44:56.129Z,59.13
2023-03-06T02:47:24.487Z,59.38
2023-03-06T02:49:52.429Z,59.71
2023-03-06T02:52:20.317Z,59.83
2023-03-06T02:54:48.209Z,60.02
2023-03-06T02:57:16.218Z,59.86
2023-03-06T02:59:44.190Z,59.96
2023-03-06T03:02:12.298Z,60.41
2023-03-06T03:04:40.274Z,60.01
2023-03-06T03:07:08.286Z,60.09
2023-03-06T03:09:37.317Z,60.20
2023-03-06T03:12:06.707Z,60.52
2023-03-06T03:14:34.634Z,60.81
2023-03-06T03:17:02.732Z,61.23
2023-03-06T03:19:30.643Z,61.10
2023-03-06T03:21:59.060Z,61.59
2023-03-06T03:24:27.118Z,61.71
2023-03-06T03:26:55.118Z,62.03
2023-03-06T03:29:23.265Z,62.07
2023-03-06T03:31:51.230Z,61.97
2023-03-06T03:34:19.146Z,61.97
2023-03-06T03:36:47.015Z,62.10
2023-03-06T03:39:15.153Z,62.41
2023-03-06T03:41:43.184Z,62.56
2023-03-06T03:44:11.188Z,62.71
2023-03-06T03:46:39.485Z,62.93
2023-03-06T03:49:07.442Z,63.54
2023-03-06T03:51:36.343Z,63.70
2023-03-06T03:54:06.139Z,63.81
2023-03-06T03:56:34.371Z,63.93
2023-03-06T03:59:02.982Z,63.86
2023-03-06T04:01:31.057Z,63.83
2023-03-06T04:03:58.939Z,64.08
2023-03-06T04:06:27.304Z,64.22
2023-03-06T04:08:56.234Z,64.56
2023-03-06T04:11:24.287Z,65.03
2023-03-06T04:13:52.361Z,65.34
2023-03-06T04:16:20.380Z,65.16
2023-03-06T04:18:48.262Z,65.14
2023-03-06T04:21:16.178Z,65.43
2023-03-06T04:23:44.116Z,65.59
2023-03-06T04:26:12.102Z,65.86
2023-03-06T04:28:40.057Z,66.07
2023-03-06T04:31:13.192Z,65.95
2023-03-06T04:33:41.234Z,66.21
2023-03-06T04:36:28.248Z,66.20
2023-03-06T04:39:13.347Z,66.15
2023-03-06T04:41:42.447Z,66.28
2023-03-06T04:44:10.673Z,66.49
2023-03-06T04:46:38.721Z,66.47
2023-03-06T04:49:06.722Z,66.63
2023-03-06T04:51:36.906Z,66.71
2023-03-06T04:54:05.435Z,66.89
2023-03-06T04:56:34.614Z,67.15
2023-03-06T04:59:04.310Z,67.15
2023-03-06T05:01:33.484Z,67.24
2023-03-06T05:04:01.417Z,67.24
2023-03-06T05:06:29.487Z,67.51
2023-03-06T05:08:57.638Z,67.84
2023-03-06T05:11:25.589Z,67.85
2023-03-06T05:13:53.498Z,68.11
2023-03-06T05:16:21.538Z,68.06
2023-03-06T05:18:50.674Z,68.21
2023-03-06T05:21:18.622Z,68.32
2023-03-06T05:23:47.589Z,68.36
2023-03-06T05:26:15.899Z,68.38
2023-03-06T05:28:43.864Z,68.31
2023-03-06T05:31:11.944Z,68.50
2023-03-06T05:33:40.022Z,68.42
2023-03-06T05:36:09.630Z,68.13
2023-03-06T05:38:37.601Z,68.19
2023-03-06T05:41:05.542Z,68.40
2023-03-06T05:43:33.546Z,68.29
2023-03-06T05:46:04.051Z,68.36
2023-03-06T05:48:32.859Z,68.50
2023-03-06T05:51:01.914Z,68.21
2023-03-06T05:53:30.484Z,68.26
2023-03-06T05:56:03.961Z,68.35
2023-03-06T05:58:33.243Z,68.52
2023-03-06T06:01:09.412Z,68.04
2023-03-06T06:03:37.769Z,68.06
2023-03-06T06:06:08.384Z,68.00
2023-03-06T06:08:37.758Z,68.34
2023-03-06T06:11:07.427Z,68.07
2023-03-06T06:13:35.689Z,68.42
2023-03-06T06:16:11.903Z,68.45
2023-03-06T06:18:41.234Z,68.63
2023-03-06T06:21:11.375Z,68.26
2023-03-06T06:23:39.364Z,68.41
2023-03-06T06:26:08.952Z,68.33
2023-03-06T06:28:37.051Z,68.31
2023-03-06T06:31:10.733Z,68.62
2023-03-06T06:33:39.804Z,68.82
2023-03-06T06:36:16.605Z,68.91
2023-03-06T06:38:44.657Z,68.83
2023-03-06T06:41:38.809Z,68.83
2023-03-06T06:44:01.261Z,68.60
2023-03-06T06:49:17.611Z,68.44
2023-03-06T06:51:45.870Z,68.15
2023-03-06T06:54:13.825Z,67.65
2023-03-06T06:56:41.723Z,67.37
2023-03-06T06:59:16.435Z,67.40
2023-03-06T07:01:45.401Z,67.22
2023-03-06T07:04:13.991Z,66.78
2023-03-06T07:06:42.888Z,66.23
2023-03-06T07:09:12.106Z,65.91
2023-03-06T07:11:40.774Z,65.74
2023-03-06T07:14:08.988Z,65.62
2023-03-06T07:16:37.014Z,65.43
2023-03-06T07:19:05.157Z,65.07
2023-03-06T07:21:33.215Z,64.58
2023-03-06T07:24:01.500Z,64.59
2023-03-06T07:26:32.701Z,64.18
2023-03-06T07:29:03.587Z,64.02
2023-03-06T07:31:32.097Z,63.80
2023-03-06T07:34:00.233Z,63.67
2023-03-06T07:36:28.923Z,63.33
2023-03-06T07:38:56.795Z,63.03
2023-03-06T07:41:24.702Z,62.59
2023-03-06T07:43:52.617Z,61.93
2023-03-06T07:46:20.536Z,61.98
2023-03-06T07:48:48.399Z,61.59
2023-03-06T07:51:20.178Z,61.26
2023-03-06T07:53:49.529Z,61.38
2023-03-06T07:56:17.752Z,60.69
2023-03-06T07:58:46.838Z,59.74
2023-03-06T08:01:17.979Z,59.27
2023-03-06T08:03:47.282Z,59.11
2023-03-06T08:06:18.798Z,59.50
2023-03-06T08:08:48.484Z,59.49
2023-03-06T08:11:18.823Z,59.23
2023-03-06T08:13:48.818Z,59.21
2023-03-06T08:16:17.675Z,59.09
2023-03-06T08:18:46.588Z,58.42
2023-03-06T08:21:17.485Z,57.96
2023-03-06T08:23:46.400Z,57.43
2023-03-06T08:26:20.006Z,57.78
2023-03-06T08:28:48.264Z,57.60
2023-03-06T08:31:34.928Z,56.36
2023-03-06T08:34:09.438Z,55.02
2023-03-06T08:36:37.495Z,55.30
2023-03-06T08:39:05.923Z,55.37
2023-03-06T08:41:35.195Z,55.22
2023-03-06T08:44:07.306Z,54.86
2023-03-06T08:46:36.392Z,54.07
2023-03-06T08:49:05.042Z,54.49
2023-03-06T08:51:33.290Z,54.26
2023-03-06T08:54:01.233Z,54.01
2023-03-06T08:56:31.507Z,53.75
2023-03-06T08:59:01.932Z,52.50
2023-03-06T09:01:32.353Z,51.61
2023-03-06T09:04:02.988Z,51.64
2023-03-06T09:06:33.871Z,51.29
2023-03-06T09:09:02.032Z,49.65
2023-03-06T09:11:30.260Z,49.35
2023-03-06T09:13:58.318Z,49.55
2023-03-06T09:16:26.738Z,49.66
2023-03-06T09:18:54.910Z,47.85
2023-03-06T09:21:23.137Z,48.57
2023-03-06T09:23:51.915Z,47.11
2023-03-06T09:26:19.883Z,47.52
2023-03-06T09:28:47.831Z,47.90
2023-03-06T09:31:20.560Z,47.78
2023-03-06T09:33:48.685Z,47.15
2023-03-06T09:36:19.408Z,46.54
2023-03-06T09:38:50.024Z,45.65
2023-03-06T09:41:31.570Z,45.54
2023-03-06T09:44:22.584Z,45.68
2023-03-06T09:47:03.462Z,45.77
2023-03-06T09:49:49.416Z,46.52
2023-03-06T09:52:28.888Z,46.02
2023-03-06T09:55:09.021Z,45.49
2023-03-06T09:57:42.442Z,45.12
2023-03-06T10:00:30.711Z,44.77
2023-03-06T10:03:18.106Z,44.90
2023-03-06T10:06:10.387Z,44.76
2023-03-06T10:09:03.341Z,44.16
2023-03-06T10:11:39.717Z,44.40
2023-03-06T10:14:18.644Z,44.20
2023-03-06T10:16:46.879Z,43.33
2023-03-06T10:19:18.193Z,43.22
2023-03-06T10:22:15.801Z,42.56
2023-03-06T10:25:08.644Z,42.31
2023-03-06T10:27:50.362Z,42.54
2023-03-06T10:30:48.899Z,42.41
2023-03-06T10:33:42.183Z,42.24
2023-03-06T10:36:18.578Z,42.60
2023-03-06T10:38:50.295Z,42.14
2023-03-06T10:41:25.842Z,41.15
2023-03-06T10:43:59.831Z,40.87
2023-03-06T10:46:37.408Z,40.52
2023-03-06T10:49:14.184Z,38.39
2023-03-06T10:51:56.820Z,38.78
2023-03-06T10:54:25.272Z,39.29
2023-03-06T10:56:53.192Z,39.01
2023-03-06T10:59:28.455Z,38.71
2023-03-06T11:01:58.908Z,39.36
2023-03-06T11:04:34.575Z,40.09
2023-03-06T11:07:15.405Z,39.55
2023-03-06T11:09:59.849Z,40.16
2023-03-06T11:12:38.461Z,39.79
2023-03-06T11:15:17.911Z,40.22
2023-03-06T11:17:55.955Z,40.09
2023-03-06T11:20:24.185Z,40.01
2023-03-06T11:22:59.635Z,40.16
2023-03-06T11:25:34.120Z,40.26
2023-03-06T11:28:16.020Z,39.96
2023-03-06T11:30:54.605Z,39.99
2023-03-06T11:33:31.166Z,39.64
2023-03-06T11:36:23.588Z,38.50
2023-03-06T11:38:54.125Z,38.49
2023-03-06T11:41:34.141Z,38.70
2023-03-06T11:44:14.351Z,39.59
2023-03-06T11:47:07.802Z,39.30
2023-03-06T11:49:43.653Z,39.38
2023-03-06T11:52:44.495Z,39.08
2023-03-06T11:55:17.281Z,38.71
2023-03-06T11:58:08.446Z,38.51
2023-03-06T12:01:05.507Z,38.65
2023-03-06T12:04:13.880Z,38.48
2023-03-06T12:07:27.701Z,38.39
2023-03-06T12:10:23.657Z,38.82
2023-03-06T12:13:11.340Z,38.65
2023-03-06T12:15:57.791Z,39.00
2023-03-06T12:18:42.832Z,38.78
2023-03-06T12:21:22.993Z,38.66
2023-03-06T12:24:05.255Z,39.07
2023-03-06T12:27:13.114Z,39.47
2023-03-06T12:29:57.885Z,39.45
2023-03-06T12:32:52.374Z,39.64
2023-03-06T12:35:20.229Z,39.65
2023-03-06T12:38:00.106Z,39.36
2023-03-06T12:40:46.497Z,38.76
2023-03-06T12:43:23.569Z,38.74
2023-03-06T12:45:57.015Z,38.45
2023-03-06T12:48:29.574Z,39.39
2023-03-06T12:50:57.910Z,39.77
2023-03-06T12:53:30.315Z,39.68
2023-03-06T12:56:01.590Z,39.44
2023-03-06T12:58:29.609Z,39.02
2023-03-06T13:01:10.150Z,38.57
2023-03-06T13:04:15.113Z,38.39
2023-03-06T13:06:58.064Z,38.88
2023-03-06T13:09:44.751Z,38.75
2023-03-06T13:12:38.897Z,38.43
2023-03-06T13:15:42.880Z,38.70
2023-03-06T13:18:33.396Z,38.31
2023-03-06T13:21:01.711Z,38.43
2023-03-06T13:23:29.556Z,38.27
2023-03-06T13:26:16.964Z,38.20
2023-03-06T13:28:54.148Z,38.60
2023-03-06T13:31:33.165Z,38.82
2023-03-06T13:34:03.794Z,38.50
2023-03-06T13:36:33.126Z,38.18
2023-03-06T13:39:12.471Z,38.33
2023-03-06T13:41:54.599Z,37.92
2023-03-06T13:44:25.458Z,37.62
2023-03-06T13:47:25.069Z,37.65
2023-03-06T13:49:53.020Z,37.30
2023-03-06T13:52:35.954Z,37.72
2023-03-06T13:55:25.368Z,37.83
2023-03-06T13:58:18.427Z,37.72
2023-03-06T14:01:17.201Z,38.11
2023-03-06T14:04:30.803Z,38.98
2023-03-06T14:06:58.829Z,38.54
2023-03-06T14:09:35.750Z,38.53
2023-03-06T14:12:17.006Z,38.75
2023-03-06T14:14:51.056Z,38.84
2023-03-06T14:17:26.808Z,38.77
2023-03-06T14:19:58.103Z,38.43
2023-03-06T14:22:26.102Z,38.45
2023-03-06T14:25:02.926Z,38.68
2023-03-06T14:27:41.929Z,38.16
2023-03-06T14:30:16.426Z,38.26
2023-03-06T14:32:45.100Z,38.69
2023-03-06T14:35:39.346Z,38.73
2023-03-06T14:38:08.110Z,39.03
2023-03-06T14:40:45.758Z,38.93
2023-03-06T14:43:22.647Z,39.30
2023-03-06T14:45:52.167Z,39.67
2023-03-06T14:48:20.259Z,39.82
2023-03-06T14:50:54.843Z,39.87
2023-03-06T14:53:30.424Z,40.09
2023-03-06T14:56:06.022Z,40.47
2023-03-06T14:58:51.379Z,40.57
2023-03-06T15:01:27.147Z,40.65
2023-03-06T15:03:59.334Z,41.16
2023-03-06T15:06:38.146Z,41.09
2023-03-06T15:09:16.873Z,41.05
2023-03-06T15:11:58.493Z,41.00
2023-03-06T15:14:39.760Z,41.22
2023-03-06T15:17:28.303Z,41.28
2023-03-06T15:20:01.166Z,41.46
2023-03-06T15:22:43.312Z,41.78
2023-03-06T15:25:33.065Z,41.88
2023-03-06T15:28:26.097Z,41.62
2023-03-06T15:31:22.195Z,41.61
2023-03-06T15:34:11.261Z,41.85
2023-03-06T15:36:51.452Z,42.09
2023-03-06T15:39:37.834Z,42.55
2023-03-06T15:42:34.682Z,42.54
2023-03-06T15:45:23.867Z,42.61
2023-03-06T15:47:53.608Z,43.02
2023-03-06T15:50:22.972Z,43.19
2023-03-06T15:52:51.474Z,43.40
2023-03-06T15:55:22.561Z,43.57
2023-03-06T15:57:57.008Z,43.64
2023-03-06T16:00:28.639Z,43.55
2023-03-06T16:02:58.064Z,44.18
2023-03-06T16:05:27.519Z,44.45
2023-03-06T16:07:55.776Z,44.47
2023-03-06T16:10:27.768Z,44.59
2023-03-06T16:13:00.276Z,44.58
2023-03-06T16:15:30.597Z,44.68
2023-03-06T16:18:00.289Z,45.32
2023-03-06T16:20:29.586Z,45.54
2023-03-06T16:22:57.464Z,46.00
2023-03-06T16:25:28.193Z,45.89
2023-03-06T16:27:58.307Z,45.89
2023-03-06T16:30:29.418Z,46.09
2023-03-06T16:32:58.158Z,45.91
2023-03-06T16:35:26.727Z,46.59
2023-03-06T16:37:54.881Z,47.04
2023-03-06T16:40:22.984Z,46.93
2023-03-06T16:42:53.439Z,46.91
2023-03-06T16:45:23.662Z,47.06
2023-03-06T16:47:51.762Z,47.03
2023-03-06T16:50:28.908Z,47.80
2023-03-06T16:52:57.993Z,47.88
2023-03-06T16:55:27.334Z,48.43
2023-03-06T16:57:55.256Z,49.12
2023-03-06T17:00:31.075Z,48.98
2023-03-06T17:03:00.693Z,49.18
2023-03-06T17:05:29.588Z,49.83
2023-03-06T17:07:57.433Z,49.62
2023-03-06T17:10:27.197Z,49.50
2023-03-06T17:12:56.538Z,49.50
2023-03-06T17:15:24.429Z,49.79
2023-03-06T17:17:53.363Z,50.47
2023-03-06T17:20:21.246Z,50.51
2023-03-06T17:22:49.241Z,50.78
2023-03-06T17:25:17.396Z,51.36
2023-03-06T17:27:45.395Z,51.61
2023-03-06T17:30:13.742Z,51.62
2023-03-06T17:32:44.428Z,51.85
2023-03-06T17:35:12.330Z,51.94
2023-03-06T17:37:40.242Z,51.86
2023-03-06T17:40:10.151Z,52.06
2023-03-06T17:42:38.159Z,52.34
2023-03-06T17:45:09.248Z,52.76
2023-03-06T17:47:37.491Z,52.91
2023-03-06T17:50:05.768Z,52.17
2023-03-06T17:52:33.844Z,52.52
2023-03-06T17:55:01.867Z,52.76
2023-03-06T17:57:29.764Z,52.64
2023-03-06T17:59:57.589Z,52.55
2023-03-06T18:02:25.630Z,52.29
2023-03-06T18:04:56.475Z,52.56
2023-03-06T18:07:24.683Z,52.26
2023-03-06T18:09:52.570Z,52.86
2023-03-06T18:12:20.412Z,53.47
2023-03-06T18:14:48.715Z,53.52
2023-03-06T18:17:16.637Z,53.42
2023-03-06T18:19:44.662Z,53.32
2023-03-06T18:22:12.512Z,53.22
2023-03-06T18:24:40.404Z,53.13
2023-03-06T18:27:08.364Z,53.24
2023-03-06T18:29:36.558Z,53.68
2023-03-06T18:32:04.660Z,53.83
2023-03-06T18:34:32.545Z,53.76
2023-03-06T18:37:00.520Z,53.70
2023-03-06T18:39:28.452Z,53.90
2023-03-06T18:41:56.587Z,54.60
2023-03-06T18:44:24.425Z,54.75
2023-03-06T18:46:52.511Z,54.59
2023-03-06T18:49:20.522Z,54.40
2023-03-06T18:51:50.339Z,54.10
2023-03-06T18:54:18.353Z,53.92
2023-03-06T18:56:46.213Z,54.18
2023-03-06T18:59:18.540Z,54.51
2023-03-06T19:01:48.682Z,54.96
2023-03-06T19:04:16.562Z,55.21
2023-03-06T19:06:44.484Z,55.53
2023-03-06T19:09:12.547Z,55.56
2023-03-06T19:11:40.631Z,55.66
2023-03-06T19:14:08.852Z,55.69
2023-03-06T19:16:37.105Z,56.20
2023-03-06T19:19:05.925Z,56.07
2023-03-06T19:21:33.822Z,56.18
2023-03-06T19:24:02.219Z,56.94
2023-03-06T19:26:31.305Z,57.24
2023-03-06T19:28:59.180Z,57.59
2023-03-06T19:31:28.469Z,57.63
2023-03-06T19:33:57.560Z,57.91
2023-03-06T19:36:33.312Z,57.30
2023-03-06T19:39:03.686Z,57.55
2023-03-06T19:41:31.549Z,57.63
2023-03-06T19:44:02.436Z,57.50
2023-03-06T19:46:31.745Z,57.32
2023-03-06T19:49:02.046Z,57.45
2023-03-06T19:51:30.128Z,57.55
2023-03-06T19:53:58.920Z,57.41
2023-03-06T19:56:29.078Z,57.40
2023-03-06T19:58:57.670Z,57.78
2023-03-06T20:01:27.461Z,57.47
2023-03-06T20:04:00.127Z,57.41
2023-03-06T20:06:31.455Z,57.57
2023-03-06T20:09:01.221Z,57.44
2023-03-06T20:11:32.577Z,57.40
2023-03-06T20:14:03.118Z,57.95
2023-03-06T20:16:32.077Z,57.88
2023-03-06T20:19:01.459Z,57.95
2023-03-06T20:21:32.181Z,58.08
2023-03-06T20:24:00.076Z,57.94
2023-03-06T20:26:29.282Z,57.76
2023-03-06T20:28:57.775Z,57.85
2023-03-06T20:31:28.240Z,58.15
2023-03-06T20:33:58.487Z,58.39
2023-03-06T20:36:32.128Z,58.24
2023-03-06T20:39:01.901Z,58.63
2023-03-06T20:41:31.219Z,58.38
2023-03-06T20:44:01.292Z,58.09
2023-03-06T20:46:30.111Z,58.64
2023-03-06T20:49:01.014Z,58.91
2023-03-06T20:51:36.125Z,59.13
2023-03-06T20:54:05.175Z,58.95
2023-03-06T20:56:35.103Z,59.12
2023-03-06T20:59:03.407Z,59.28
2023-03-06T21:01:34.138Z,59.32
2023-03-06T21:04:04.590Z,59.36
2023-03-06T21:06:33.322Z,59.63
2023-03-06T21:09:01.917Z,59.52
2023-03-06T21:11:29.920Z,59.45
2023-03-06T21:13:58.107Z,59.53
2023-03-06T21:16:27.790Z,59.63
2023-03-06T21:18:56.901Z,59.47
2023-03-06T21:21:31.472Z,59.24
2023-03-06T21:23:59.696Z,59.32
2023-03-06T21:26:29.858Z,59.33
2023-03-06T21:29:01.064Z,59.16
2023-03-06T21:31:29.745Z,59.20
2023-03-06T21:33:58.874Z,59.14
2023-03-06T21:36:27.001Z,59.12
2023-03-06T21:38:55.323Z,59.12
2023-03-06T21:41:25.959Z,59.19
2023-03-06T21:43:58.419Z,59.21
2023-03-06T21:46:27.830Z,59.75
2023-03-06T21:48:56.408Z,59.98
2023-03-06T21:51:25.653Z,60.77
2023-03-06T21:53:54.470Z,61.19
2023-03-06T21:56:25.383Z,61.05
2023-03-06T21:58:53.404Z,61.52
2023-03-06T22:01:24.538Z,61.43
2023-03-06T22:03:53.175Z,61.72
2023-03-06T22:06:25.187Z,61.92
2023-03-06T22:08:55.105Z,61.92
2023-03-06T22:11:29.784Z,61.59
2023-03-06T22:13:58.141Z,61.74
2023-03-06T22:16:26.168Z,61.96
2023-03-06T22:18:54.123Z,61.84
2023-03-06T22:21:23.225Z,61.55
2023-03-06T22:23:52.941Z,61.26
2023-03-06T22:26:21.073Z,61.40
2023-03-06T22:28:49.446Z,60.92
2023-03-06T22:31:20.403Z,60.88
2023-03-06T22:33:53.818Z,60.74
2023-03-06T22:36:22.784Z,61.13
2023-03-06T22:38:55.155Z,61.50
2023-03-06T22:41:23.234Z,61.23
2023-03-06T22:43:51.209Z,60.93
2023-03-06T22:46:19.263Z,60.79
2023-03-06T22:48:47.228Z,60.79
2023-03-06T22:51:17.873Z,60.94
2023-03-06T22:53:46.784Z,60.90
2023-03-06T22:56:18.082Z,60.96
2023-03-06T22:58:46.900Z,60.76
2023-03-06T23:01:20.284Z,60.87
2023-03-06T23:03:50.504Z,60.83
2023-03-06T23:06:33.203Z,60.70
2023-03-06T23:09:13.016Z,60.80
2023-03-06T23:11:40.898Z,60.80
2023-03-06T23:14:12.548Z,60.80
2023-03-06T23:16:40.524Z,60.88
2023-03-06T23:19:08.538Z,61.20
2023-03-06T23:21:36.479Z,61.30
2023-03-06T23:24:04.761Z,61.31
2023-03-06T23:26:34.349Z,61.15
2023-03-06T23:29:02.231Z,61.13
2023-03-06T23:31:31.209Z,61.26
2023-03-06T23:34:01.339Z,62.44
2023-03-06T23:36:30.261Z,63.89
2023-03-06T23:38:58.608Z,64.78
2023-03-06T23:41:26.624Z,65.68
2023-03-06T23:43:55.387Z,66.69
2023-03-06T23:46:23.805Z,67.82
2023-03-06T23:48:52.129Z,68.65
2023-03-06T23:51:22.591Z,69.12
2023-03-06T23:53:59.017Z,69.52
2023-03-06T23:56:28.577Z,69.92
2023-03-06T23:58:56.830Z,70.13
